createdAt,value
2017-08-28T04:48:57.879Z,0
2017-08-28T04:49:46.348Z,0
2017-08-28T04:50:46.046Z,0
2017-08-28T04:51:45.785Z,0
2017-08-28T04:52:46.743Z,0
2017-08-28T04:53:46.445Z,0
2017-08-28T04:54:46.458Z,0
2017-08-28T04:55:46.796Z,0
2017-08-28T04:56:46.904Z,0
2017-08-28T04:57:46.902Z,0
2017-08-28T04:58:46.903Z,0
2017-08-28T04:59:46.899Z,0
2017-08-28T05:00:46.254Z,0
2017-08-28T05:01:47.029Z,0
2017-08-28T05:02:46.302Z,0
2017-08-28T05:03:46.136Z,0
2017-08-28T05:04:46.345Z,0
2017-08-28T05:05:47.001Z,0
2017-08-28T05:06:47.153Z,0
2017-08-28T05:07:47.144Z,0
2017-08-28T05:08:46.516Z,0
2017-08-28T05:09:46.937Z,0
2017-08-28T05:10:47.534Z,0
2017-08-28T05:11:46.904Z,0
2017-08-28T05:12:46.512Z,0
2017-08-28T05:13:46.204Z,0
2017-08-28T05:14:46.228Z,0
2017-08-28T05:15:46.567Z,0
2017-08-28T05:16:47.362Z,0
2017-08-28T05:17:46.617Z,0
2017-08-28T05:18:46.631Z,0
2017-08-28T05:19:46.335Z,0
2017-08-28T05:20:47.323Z,0
2017-08-28T05:21:47.091Z,0
2017-08-28T05:22:47.040Z,0
2017-08-28T05:23:47.386Z,0
2017-08-28T05:24:46.858Z,0
2017-08-28T05:25:47.156Z,0
2017-08-28T05:26:47.126Z,0
2017-08-28T05:27:46.825Z,0
2017-08-28T05:28:47.062Z,0
2017-08-28T05:29:46.686Z,0
2017-08-28T05:30:46.888Z,0
2017-08-28T05:31:47.443Z,0
2017-08-28T05:32:47.277Z,5
2017-08-28T05:33:47.608Z,5
2017-08-28T05:34:47.285Z,5
2017-08-28T05:35:46.982Z,5
2017-08-28T05:36:47.648Z,5
2017-08-28T05:37:47.354Z,5
2017-08-28T05:38:47.376Z,5
2017-08-28T05:39:47.390Z,5
2017-08-28T05:40:47.097Z,5
2017-08-28T05:41:47.113Z,5
2017-08-28T05:42:46.804Z,5
2017-08-28T05:43:47.852Z,5
2017-08-28T05:44:46.845Z,5
2017-08-28T05:45:47.844Z,5
2017-08-28T05:46:47.572Z,5
2017-08-28T05:47:47.876Z,5
2017-08-28T05:48:47.584Z,5
2017-08-28T05:49:47.601Z,5
2017-08-28T05:50:46.973Z,5
2017-08-28T05:51:47.321Z,5
2017-08-28T05:52:47.671Z,5
2017-08-28T05:53:47.356Z,5
2017-08-28T05:54:47.382Z,5
2017-08-28T05:55:47.837Z,5
2017-08-28T05:56:47.758Z,5
2017-08-28T05:57:47.445Z,5
2017-08-28T05:58:47.787Z,5
2017-08-28T05:59:48.129Z,5
2017-08-28T06:00:47.849Z,5
2017-08-28T06:01:47.849Z,5
2017-08-28T06:02:47.545Z,5
2017-08-28T06:03:47.893Z,5
2017-08-28T06:04:48.339Z,5
2017-08-28T06:05:47.922Z,5
2017-08-28T06:06:47.448Z,5
2017-08-28T06:07:47.332Z,5
2017-08-28T06:08:47.343Z,5
2017-08-28T06:09:48.026Z,5
2017-08-28T06:10:47.719Z,5
2017-08-28T06:11:47.771Z,5
2017-08-28T06:12:48.205Z,5
2017-08-28T06:13:47.899Z,5
2017-08-28T06:14:47.468Z,5
2017-08-28T06:15:47.815Z,5
2017-08-28T06:16:47.517Z,5
2017-08-28T06:17:47.886Z,5
2017-08-28T06:18:48.209Z,5
2017-08-28T06:19:48.226Z,5
2017-08-28T06:20:48.238Z,5
2017-08-28T06:21:48.359Z,5
2017-08-28T06:22:48.611Z,5
2017-08-28T06:23:48.035Z,5
2017-08-28T06:24:48.329Z,5
2017-08-28T06:25:47.702Z,5
2017-08-28T06:26:48.367Z,5
2017-08-28T06:27:48.068Z,5
2017-08-28T06:28:48.416Z,5
2017-08-28T06:29:48.107Z,5
2017-08-28T06:30:48.132Z,5
2017-08-28T06:31:48.479Z,5
2017-08-28T06:32:48.507Z,5
2017-08-28T06:33:48.619Z,5
2017-08-28T06:34:48.537Z,5
2017-08-28T06:35:48.560Z,5
2017-08-28T06:36:48.582Z,5
2017-08-28T06:37:48.391Z,5
2017-08-28T06:38:48.737Z,5
2017-08-28T06:39:48.313Z,5
2017-08-28T06:40:48.392Z,5
2017-08-28T06:41:48.361Z,5
2017-08-28T06:42:48.380Z,5
2017-08-28T06:43:48.416Z,5
2017-08-28T06:44:48.417Z,5
2017-08-28T06:45:48.444Z,5
2017-08-28T06:46:48.495Z,5
2017-08-28T06:47:48.633Z,5
2017-08-28T06:48:48.944Z,5
2017-08-28T06:49:48.626Z,5
2017-08-28T06:50:48.966Z,5
2017-08-28T06:51:48.985Z,5
2017-08-28T06:52:48.911Z,5
2017-08-28T06:53:48.288Z,5
2017-08-28T06:54:48.947Z,5
2017-08-28T06:55:48.973Z,5
2017-08-28T06:56:48.664Z,5
2017-08-28T06:57:48.375Z,5
2017-08-28T06:58:49.045Z,5
2017-08-28T06:59:48.727Z,5
2017-08-28T07:00:48.751Z,5
2017-08-28T07:01:49.105Z,5
2017-08-28T07:02:48.795Z,5
2017-08-28T07:03:48.820Z,5
2017-08-28T07:04:49.290Z,5
2017-08-28T07:05:48.860Z,5
2017-08-28T07:06:49.526Z,5
2017-08-28T07:07:48.979Z,5
2017-08-28T07:08:49.010Z,5
2017-08-28T07:09:49.273Z,5
2017-08-28T07:10:48.963Z,5
2017-08-28T07:11:48.980Z,5
2017-08-28T07:12:49.651Z,5
2017-08-28T07:13:48.745Z,5
2017-08-28T07:14:49.371Z,5
2017-08-28T07:15:49.170Z,5
2017-08-28T07:16:49.347Z,5
2017-08-28T07:17:49.150Z,5
2017-08-28T07:18:49.494Z,5
2017-08-28T07:19:49.478Z,5
2017-08-28T07:20:49.552Z,5
2017-08-28T07:21:48.876Z,5
2017-08-28T07:22:49.323Z,5
2017-08-28T07:23:49.330Z,5
2017-08-28T07:24:49.039Z,5
2017-08-28T07:25:48.959Z,5
2017-08-28T07:26:48.983Z,5
2017-08-28T07:27:49.651Z,5
2017-08-28T07:28:49.994Z,5
2017-08-28T07:29:48.730Z,5
2017-08-28T07:30:49.441Z,5
2017-08-28T07:31:49.733Z,5
2017-08-28T07:32:49.747Z,5
2017-08-28T07:33:49.138Z,5
2017-08-28T07:34:49.880Z,5
2017-08-28T07:35:50.172Z,5
2017-08-28T07:36:49.839Z,5
2017-08-28T07:37:48.896Z,5
2017-08-28T07:38:50.231Z,5
2017-08-28T07:39:49.906Z,5
2017-08-28T07:40:50.260Z,5
2017-08-28T07:41:50.271Z,5
2017-08-28T07:42:49.320Z,5
2017-08-28T07:43:50.313Z,5
2017-08-28T07:44:50.107Z,5
2017-08-28T07:45:49.940Z,5
2017-08-28T07:46:49.930Z,5
2017-08-28T07:47:50.271Z,5
2017-08-28T07:48:50.275Z,5
2017-08-28T07:49:50.266Z,5
2017-08-28T07:50:49.622Z,5
2017-08-28T07:51:50.495Z,5
2017-08-28T07:52:49.859Z,5
2017-08-28T07:53:50.535Z,5
2017-08-28T07:54:50.222Z,5
2017-08-28T07:55:50.252Z,5
2017-08-28T07:56:49.301Z,5
2017-08-28T07:57:49.968Z,5
2017-08-28T07:58:50.637Z,5
2017-08-28T07:59:50.020Z,5
2017-08-28T08:00:50.362Z,5
2017-08-28T08:01:50.058Z,5
2017-08-28T08:02:50.404Z,5
2017-08-28T08:03:50.111Z,5
2017-08-28T08:04:50.464Z,5
2017-08-28T08:05:49.640Z,5
2017-08-28T08:06:49.677Z,5
2017-08-28T08:07:50.511Z,5
2017-08-28T08:08:50.538Z,5
2017-08-28T08:09:50.549Z,5
2017-08-28T08:10:50.594Z,5
2017-08-28T08:11:50.282Z,5
2017-08-28T08:12:50.624Z,5
2017-08-28T08:13:50.068Z,5
2017-08-28T08:14:50.993Z,5
2017-08-28T08:15:50.362Z,5
2017-08-28T08:16:50.715Z,5
2017-08-28T08:17:50.738Z,5
2017-08-28T08:18:50.757Z,5
2017-08-28T08:19:50.782Z,5
2017-08-28T08:20:50.484Z,5
2017-08-28T08:21:50.498Z,10
2017-08-28T08:22:51.162Z,10
2017-08-28T08:23:51.192Z,10
2017-08-28T08:24:50.898Z,10
2017-08-28T08:25:50.916Z,10
2017-08-28T08:26:50.945Z,10
2017-08-28T08:27:51.282Z,10
2017-08-28T08:28:51.303Z,10
2017-08-28T08:29:50.688Z,10
2017-08-28T08:30:51.023Z,10
2017-08-28T08:31:51.051Z,10
2017-08-28T08:32:51.108Z,10
2017-08-28T08:33:51.103Z,10
2017-08-28T08:34:50.476Z,10
2017-08-28T08:35:50.817Z,10
2017-08-28T08:36:51.506Z,10
2017-08-28T08:37:51.190Z,10
2017-08-28T08:38:51.533Z,10
2017-08-28T08:39:50.795Z,10
2017-08-28T08:40:51.257Z,10
2017-08-28T08:41:50.955Z,10
2017-08-28T08:42:50.337Z,10
2017-08-28T08:43:50.681Z,10
2017-08-28T08:44:50.698Z,10
2017-08-28T08:45:51.394Z,10
2017-08-28T08:46:51.070Z,10
2017-08-28T08:47:50.774Z,10
2017-08-28T08:48:51.113Z,10
2017-08-28T08:49:51.467Z,10
2017-08-28T08:50:51.504Z,10
2017-08-28T08:51:51.503Z,10
2017-08-28T08:52:51.213Z,10
2017-08-28T08:53:51.229Z,10
2017-08-28T08:54:50.937Z,10
2017-08-28T08:55:51.600Z,10
2017-08-28T08:56:50.977Z,10
2017-08-28T08:57:51.644Z,10
2017-08-28T08:58:51.028Z,10
2017-08-28T08:59:51.768Z,10
2017-08-28T09:00:50.755Z,10
2017-08-28T09:01:51.944Z,15
2017-08-28T09:02:51.444Z,15
2017-08-28T09:03:51.147Z,20
2017-08-28T09:04:51.815Z,20
2017-08-28T09:05:51.520Z,20
2017-08-28T09:06:51.225Z,20
2017-08-28T09:07:51.563Z,20
2017-08-28T09:08:51.705Z,20
2017-08-28T09:09:52.354Z,20
2017-08-28T09:10:51.643Z,15
2017-08-28T09:11:52.073Z,15
2017-08-28T09:12:51.909Z,10
2017-08-28T09:13:51.701Z,15
2017-08-28T09:14:51.784Z,15
2017-08-28T09:15:51.533Z,15
2017-08-28T09:16:51.779Z,15
2017-08-28T09:17:51.912Z,15
2017-08-28T09:18:52.560Z,20
2017-08-28T09:19:51.741Z,20
2017-08-28T09:20:52.326Z,15
2017-08-28T09:21:52.425Z,20
2017-08-28T09:22:52.380Z,15
2017-08-28T09:23:52.070Z,15
2017-08-28T09:24:52.384Z,15
2017-08-28T09:25:52.089Z,15
2017-08-28T09:26:51.921Z,15
2017-08-28T09:27:52.046Z,15
2017-08-28T09:28:52.600Z,20
2017-08-28T09:29:52.417Z,20
2017-08-28T09:30:52.115Z,25
2017-08-28T09:31:52.458Z,25
2017-08-28T09:32:52.585Z,25
2017-08-28T09:33:52.200Z,25
2017-08-28T09:34:52.021Z,25
2017-08-28T09:35:51.693Z,25
2017-08-28T09:36:52.043Z,25
2017-08-28T09:37:52.374Z,30
2017-08-28T09:38:52.073Z,30
2017-08-28T09:39:52.352Z,30
2017-08-28T09:40:52.084Z,30
2017-08-28T09:41:52.081Z,30
2017-08-28T09:42:52.186Z,25
2017-08-28T09:43:53.097Z,25
2017-08-28T09:44:52.797Z,25
2017-08-28T09:45:53.021Z,25
2017-08-28T09:46:52.191Z,25
2017-08-28T09:47:52.543Z,25
2017-08-28T09:48:52.897Z,25
2017-08-28T09:49:52.918Z,25
2017-08-28T09:50:52.946Z,25
2017-08-28T09:51:52.644Z,25
2017-08-28T09:52:52.666Z,25
2017-08-28T09:53:53.033Z,20
2017-08-28T09:54:53.366Z,20
2017-08-28T09:55:53.072Z,15
2017-08-28T09:56:52.777Z,15
2017-08-28T09:57:52.156Z,20
2017-08-28T09:58:52.176Z,25
2017-08-28T09:59:52.861Z,30
2017-08-28T10:00:53.198Z,30
2017-08-28T10:01:52.576Z,30
2017-08-28T10:02:53.249Z,35
2017-08-28T10:03:53.345Z,40
2017-08-28T10:04:53.311Z,40
2017-08-28T10:05:53.008Z,35
2017-08-28T10:06:53.365Z,35
2017-08-28T10:07:53.380Z,35
2017-08-28T10:08:53.409Z,30
2017-08-28T10:09:53.756Z,35
2017-08-28T10:10:53.778Z,35
2017-08-28T10:11:53.159Z,40
2017-08-28T10:12:52.868Z,40
2017-08-28T10:13:53.860Z,40
2017-08-28T10:14:53.891Z,40
2017-08-28T10:15:53.259Z,40
2017-08-28T10:16:52.973Z,45
2017-08-28T10:17:53.966Z,45
2017-08-28T10:18:53.686Z,45
2017-08-28T10:19:54.120Z,45
2017-08-28T10:20:53.730Z,40
2017-08-28T10:21:53.756Z,35
2017-08-28T10:22:54.203Z,35
2017-08-28T10:23:53.150Z,30
2017-08-28T10:24:54.201Z,25
2017-08-28T10:25:53.868Z,30
2017-08-28T10:26:53.549Z,30
2017-08-28T10:27:53.572Z,25
2017-08-28T10:28:53.597Z,25
2017-08-28T10:29:53.636Z,30
2017-08-28T10:30:53.666Z,30
2017-08-28T10:31:53.362Z,25
2017-08-28T10:32:54.510Z,40
2017-08-28T10:33:54.054Z,45
2017-08-28T10:34:53.764Z,45
2017-08-28T10:35:54.205Z,40
2017-08-28T10:36:53.806Z,40
2017-08-28T10:37:53.843Z,35
2017-08-28T10:38:53.542Z,35
2017-08-28T10:39:54.306Z,35
2017-08-28T10:40:54.011Z,35
2017-08-28T10:41:54.595Z,30
2017-08-28T10:42:53.659Z,30
2017-08-28T10:43:53.677Z,30
2017-08-28T10:44:53.703Z,30
2017-08-28T10:45:54.380Z,25
2017-08-28T10:46:54.413Z,25
2017-08-28T10:47:54.762Z,25
2017-08-28T10:48:53.489Z,25
2017-08-28T10:49:54.259Z,25
2017-08-28T10:50:53.960Z,25
2017-08-28T10:51:54.865Z,25
2017-08-28T10:52:53.983Z,25
2017-08-28T10:53:54.284Z,25
2017-08-28T10:54:54.300Z,25
2017-08-28T10:55:54.970Z,25
2017-08-28T10:56:54.150Z,25
2017-08-28T10:57:54.701Z,30
2017-08-28T10:58:54.724Z,15
2017-08-28T10:59:54.760Z,15
2017-08-28T11:00:54.780Z,15
2017-08-28T11:01:54.183Z,15
2017-08-28T11:02:54.838Z,25
2017-08-28T11:03:54.872Z,20
2017-08-28T11:04:54.572Z,15
2017-08-28T11:05:54.593Z,15
2017-08-28T11:06:54.625Z,15
2017-08-28T11:07:54.653Z,20
2017-08-28T11:08:55.009Z,25
2017-08-28T11:09:54.417Z,30
2017-08-28T11:10:54.737Z,25
2017-08-28T11:11:55.625Z,15
2017-08-28T11:12:54.787Z,15
2017-08-28T11:13:54.820Z,30
2017-08-28T11:14:54.857Z,35
2017-08-28T11:15:54.551Z,35
2017-08-28T11:16:55.227Z,35
2017-08-28T11:17:55.274Z,35
2017-08-28T11:18:55.610Z,40
2017-08-28T11:19:55.313Z,40
2017-08-28T11:20:54.691Z,45
2017-08-28T11:21:55.361Z,40
2017-08-28T11:22:55.067Z,45
2017-08-28T11:23:55.630Z,50
2017-08-28T11:24:55.454Z,55
2017-08-28T11:25:55.481Z,50
2017-08-28T11:26:55.963Z,50
2017-08-28T11:27:55.225Z,50
2017-08-28T11:28:55.565Z,55
2017-08-28T11:29:55.280Z,60
2017-08-28T11:30:55.196Z,65
2017-08-28T11:31:55.657Z,65
2017-08-28T11:32:55.372Z,65
2017-08-28T11:33:55.055Z,65
2017-08-28T11:34:55.091Z,65
2017-08-28T11:35:55.832Z,60
2017-08-28T11:36:55.796Z,55
2017-08-28T11:37:55.830Z,55
2017-08-28T11:38:55.523Z,50
2017-08-28T11:39:55.972Z,50
2017-08-28T11:40:55.586Z,55
2017-08-28T11:41:56.003Z,45
2017-08-28T11:42:56.002Z,55
2017-08-28T11:43:56.014Z,45
2017-08-28T11:44:56.120Z,45
2017-08-28T11:45:56.370Z,45
2017-08-28T11:46:56.164Z,50
2017-08-28T11:47:55.462Z,50
2017-08-28T11:48:55.863Z,50
2017-08-28T11:49:55.992Z,45
2017-08-28T11:50:56.198Z,45
2017-08-28T11:51:55.569Z,40
2017-08-28T11:52:56.586Z,40
2017-08-28T11:53:56.282Z,40
2017-08-28T11:54:55.669Z,40
2017-08-28T11:55:55.685Z,40
2017-08-28T11:56:56.695Z,40
2017-08-28T11:57:56.100Z,40
2017-08-28T11:58:56.750Z,40
2017-08-28T11:59:56.448Z,35
2017-08-28T12:00:56.810Z,35
2017-08-28T12:01:56.841Z,35
2017-08-28T12:02:56.543Z,45
2017-08-28T12:03:56.257Z,45
2017-08-28T12:04:56.292Z,40
2017-08-28T12:05:56.306Z,40
2017-08-28T12:06:56.654Z,50
2017-08-28T12:07:56.122Z,35
2017-08-28T12:08:56.398Z,35
2017-08-28T12:09:56.754Z,30
2017-08-28T12:10:57.106Z,30
2017-08-28T12:11:56.490Z,35
2017-08-28T12:12:57.156Z,40
2017-08-28T12:13:56.551Z,40
2017-08-28T12:14:57.226Z,45
2017-08-28T12:15:56.278Z,30
2017-08-28T12:16:56.629Z,25
2017-08-28T12:17:56.987Z,20
2017-08-28T12:18:56.364Z,20
2017-08-28T12:19:57.371Z,25
2017-08-28T12:20:56.750Z,25
2017-08-28T12:21:56.780Z,30
2017-08-28T12:22:57.134Z,30
2017-08-28T12:23:56.836Z,35
2017-08-28T12:24:56.547Z,25
2017-08-28T12:25:56.583Z,20
2017-08-28T12:26:56.604Z,20
2017-08-28T12:27:56.958Z,20
2017-08-28T12:28:57.634Z,20
2017-08-28T12:29:57.344Z,20
2017-08-28T12:30:57.696Z,20
2017-08-28T12:31:57.439Z,20
2017-08-28T12:32:57.440Z,30
2017-08-28T12:33:57.156Z,20
2017-08-28T12:34:57.955Z,25
2017-08-28T12:35:57.954Z,25
2017-08-28T12:36:57.953Z,20
2017-08-28T12:37:57.577Z,20
2017-08-28T12:38:57.962Z,20
2017-08-28T12:39:57.328Z,20
2017-08-28T12:40:57.656Z,20
2017-08-28T12:41:58.033Z,25
2017-08-28T12:42:57.405Z,25
2017-08-28T12:43:58.176Z,20
2017-08-28T12:44:57.465Z,20
2017-08-28T12:45:58.002Z,25
2017-08-28T12:46:57.862Z,25
2017-08-28T12:47:56.912Z,25
2017-08-28T12:48:58.020Z,25
2017-08-28T12:49:57.607Z,25
2017-08-28T12:50:58.028Z,25
2017-08-28T12:51:57.695Z,25
2017-08-28T12:52:58.155Z,25
2017-08-28T12:53:58.158Z,25
2017-08-28T12:54:58.175Z,25
2017-08-28T12:55:57.688Z,25
2017-08-28T12:56:57.169Z,25
2017-08-28T12:57:57.988Z,25
2017-08-28T12:58:58.084Z,25
2017-08-28T12:59:58.125Z,25
2017-08-28T13:00:58.268Z,25
2017-08-28T13:01:58.135Z,25
2017-08-28T13:02:58.139Z,25
2017-08-28T13:03:57.834Z,25
2017-08-28T13:04:58.146Z,25
2017-08-28T13:05:58.741Z,25
2017-08-28T13:06:58.307Z,25
2017-08-28T13:07:58.527Z,25
2017-08-28T13:08:58.525Z,25
2017-08-28T13:09:58.549Z,25
2017-08-28T13:10:57.594Z,25
2017-08-28T13:11:58.929Z,25
2017-08-28T13:12:58.133Z,25
2017-08-28T13:13:58.145Z,25
2017-08-28T13:14:58.142Z,25
2017-08-28T13:15:58.376Z,25
2017-08-28T13:16:58.757Z,30
2017-08-28T13:17:58.779Z,30
2017-08-28T13:18:58.813Z,25
2017-08-28T13:19:58.207Z,25
2017-08-28T13:20:58.323Z,25
2017-08-28T13:21:58.890Z,25
2017-08-28T13:22:58.277Z,30
2017-08-28T13:23:59.286Z,30
2017-08-28T13:24:58.667Z,30
2017-08-28T13:25:58.365Z,30
2017-08-28T13:26:58.726Z,30
2017-08-28T13:27:58.747Z,30
2017-08-28T13:28:58.779Z,35
2017-08-28T13:29:59.130Z,30
2017-08-28T13:30:58.840Z,30
2017-08-28T13:31:59.310Z,30
2017-08-28T13:32:59.759Z,30
2017-08-28T13:33:59.435Z,30
2017-08-28T13:34:59.124Z,30
2017-08-28T13:35:59.438Z,30
2017-08-28T13:36:59.769Z,30
2017-08-28T13:38:00.122Z,30
2017-08-28T13:38:59.926Z,30
2017-08-28T13:39:59.918Z,30
2017-08-28T13:40:59.253Z,30
2017-08-28T13:41:59.166Z,15
2017-08-28T13:42:59.299Z,15
2017-08-28T13:43:59.991Z,20
2017-08-28T13:44:59.784Z,20
2017-08-28T13:45:59.003Z,20
2017-08-28T13:47:00.019Z,20
2017-08-28T13:48:00.006Z,20
2017-08-28T13:48:59.447Z,20
2017-08-28T13:49:59.745Z,20
2017-08-28T13:51:00.104Z,20
2017-08-28T13:51:59.927Z,30
2017-08-28T13:52:59.609Z,30
2017-08-28T13:53:59.864Z,30
2017-08-28T13:54:59.792Z,30
2017-08-28T13:55:59.925Z,30
2017-08-28T13:57:00.290Z,30
2017-08-28T13:57:59.997Z,30
2017-08-28T13:59:00.041Z,30
2017-08-28T14:00:00.050Z,30
2017-08-28T14:01:00.408Z,30
2017-08-28T14:02:00.123Z,30
2017-08-28T14:02:59.856Z,30
2017-08-28T14:03:59.848Z,30
2017-08-28T14:05:00.540Z,30
2017-08-28T14:05:59.907Z,30
2017-08-28T14:07:00.265Z,35
2017-08-28T14:08:00.303Z,35
2017-08-28T14:09:00.003Z,35
2017-08-28T14:10:00.362Z,35
2017-08-28T14:11:00.391Z,35
2017-08-28T14:12:00.093Z,35
2017-08-28T14:13:00.141Z,35
2017-08-28T14:13:59.840Z,35
2017-08-28T14:15:00.186Z,35
2017-08-28T14:16:00.221Z,35
2017-08-28T14:17:00.278Z,35
2017-08-28T14:18:00.283Z,35
2017-08-28T14:19:00.645Z,35
2017-08-28T14:20:00.675Z,35
2017-08-28T14:21:00.057Z,35
2017-08-28T14:22:00.724Z,35
2017-08-28T14:23:00.440Z,35
2017-08-28T14:24:00.153Z,35
2017-08-28T14:25:01.159Z,35
2017-08-28T14:26:01.188Z,35
2017-08-28T14:27:00.886Z,35
2017-08-28T14:28:00.927Z,35
2017-08-28T14:29:00.622Z,35
2017-08-28T14:30:00.334Z,35
2017-08-28T14:31:01.029Z,35
2017-08-28T14:32:01.369Z,35
2017-08-28T14:33:01.071Z,35
2017-08-28T14:34:01.111Z,35
2017-08-28T14:35:00.497Z,35
2017-08-28T14:36:00.855Z,35
2017-08-28T14:37:01.204Z,35
2017-08-28T14:38:00.926Z,35
2017-08-28T14:39:01.370Z,35
2017-08-28T14:40:00.992Z,35
2017-08-28T14:41:01.335Z,35
2017-08-28T14:42:01.361Z,35
2017-08-28T14:43:01.836Z,35
2017-08-28T14:44:00.777Z,35
2017-08-28T14:45:01.204Z,35
2017-08-28T14:46:01.858Z,35
2017-08-28T14:47:01.320Z,35
2017-08-28T14:48:01.971Z,35
2017-08-28T14:49:01.384Z,35
2017-08-28T14:50:01.522Z,35
2017-08-28T14:51:01.374Z,35
2017-08-28T14:52:02.147Z,35
2017-08-28T14:53:01.192Z,35
2017-08-28T14:54:01.862Z,35
2017-08-28T14:55:01.533Z,35
2017-08-28T14:56:01.162Z,35
2017-08-28T14:57:01.975Z,35
2017-08-28T14:58:01.001Z,35
2017-08-28T14:59:01.676Z,35
2017-08-28T15:00:02.019Z,35
2017-08-28T15:01:01.395Z,35
2017-08-28T15:02:01.717Z,35
2017-08-28T15:03:02.358Z,35
2017-08-28T15:04:01.756Z,35
2017-08-28T15:05:01.969Z,35
2017-08-28T15:06:02.139Z,35
2017-08-28T15:07:01.522Z,30
2017-08-28T15:08:02.519Z,30
2017-08-28T15:09:02.302Z,30
2017-08-28T15:10:01.694Z,30
2017-08-28T15:11:01.982Z,30
2017-08-28T15:12:02.017Z,30
2017-08-28T15:13:02.366Z,30
2017-08-28T15:14:01.750Z,30
2017-08-28T15:15:02.741Z,30
2017-08-28T15:16:02.787Z,30
2017-08-28T15:17:02.163Z,30
2017-08-28T15:18:01.873Z,30
2017-08-28T15:19:02.241Z,30
2017-08-28T15:20:02.261Z,30
2017-08-28T15:21:01.984Z,30
2017-08-28T15:22:02.325Z,30
2017-08-28T15:23:02.375Z,30
2017-08-28T15:24:02.950Z,30
2017-08-28T15:25:02.748Z,30
2017-08-28T15:26:03.115Z,30
2017-08-28T15:27:02.818Z,30
2017-08-28T15:28:02.536Z,30
2017-08-28T15:29:02.896Z,30
2017-08-28T15:30:02.925Z,30
2017-08-28T15:31:02.626Z,30
2017-08-28T15:32:02.988Z,30
2017-08-28T15:33:03.014Z,30
2017-08-28T15:34:02.731Z,30
2017-08-28T15:35:02.762Z,25
2017-08-28T15:36:03.108Z,25
2017-08-28T15:37:02.823Z,25
2017-08-28T15:38:02.541Z,25
2017-08-28T15:39:03.215Z,25
2017-08-28T15:40:03.252Z,25
2017-08-28T15:41:03.601Z,25
2017-08-28T15:42:02.667Z,25
2017-08-28T15:43:03.011Z,25
2017-08-28T15:44:03.374Z,25
2017-08-28T15:45:02.760Z,25
2017-08-28T15:46:03.781Z,25
2017-08-28T15:47:03.175Z,25
2017-08-28T15:48:03.525Z,25
2017-08-28T15:49:03.552Z,25
2017-08-28T15:50:03.262Z,25
2017-08-28T15:51:03.404Z,25
2017-08-28T15:52:04.048Z,25
2017-08-28T15:53:03.766Z,25
2017-08-28T15:54:03.377Z,25
2017-08-28T15:55:03.732Z,25
2017-08-28T15:56:03.126Z,25
2017-08-28T15:57:03.482Z,25
2017-08-28T15:58:03.608Z,25
2017-08-28T15:59:03.645Z,25
2017-08-28T16:00:04.030Z,25
2017-08-28T16:01:03.700Z,20
2017-08-28T16:02:04.068Z,20
2017-08-28T16:03:04.630Z,20
2017-08-28T16:04:04.631Z,20
2017-08-28T16:05:04.223Z,20
2017-08-28T16:06:03.586Z,20
2017-08-28T16:07:04.232Z,20
2017-08-28T16:08:04.355Z,20
2017-08-28T16:09:04.366Z,20
2017-08-28T16:10:04.353Z,20
2017-08-28T16:11:04.368Z,20
2017-08-28T16:12:04.369Z,20
2017-08-28T16:13:04.408Z,20
2017-08-28T16:14:04.464Z,20
2017-08-28T16:15:04.119Z,20
2017-08-28T16:16:04.537Z,20
2017-08-28T16:17:04.536Z,20
2017-08-28T16:18:04.535Z,20
2017-08-28T16:19:04.863Z,20
2017-08-28T16:20:04.885Z,20
2017-08-28T16:21:04.913Z,20
2017-08-28T16:22:04.307Z,20
2017-08-28T16:23:04.699Z,20
2017-08-28T16:24:04.699Z,15
2017-08-28T16:25:04.510Z,15
2017-08-28T16:26:04.539Z,15
2017-08-28T16:27:04.535Z,15
2017-08-28T16:28:04.545Z,15
2017-08-28T16:29:04.214Z,15
2017-08-28T16:30:04.675Z,15
2017-08-28T16:31:04.916Z,15
2017-08-28T16:32:04.957Z,15
2017-08-28T16:33:04.990Z,15
2017-08-28T16:34:04.708Z,15
2017-08-28T16:35:04.521Z,15
2017-08-28T16:36:05.085Z,15
2017-08-28T16:37:04.844Z,15
2017-08-28T16:38:05.159Z,15
2017-08-28T16:39:04.897Z,15
2017-08-28T16:40:04.892Z,15
2017-08-28T16:41:05.252Z,10
2017-08-28T16:42:05.278Z,10
2017-08-28T16:43:05.322Z,10
2017-08-28T16:44:05.368Z,10
2017-08-28T16:45:05.741Z,10
2017-08-28T16:46:05.435Z,10
2017-08-28T16:47:04.566Z,10
2017-08-28T16:48:05.483Z,10
2017-08-28T16:49:05.517Z,10
2017-08-28T16:50:05.229Z,10
2017-08-28T16:51:05.577Z,10
2017-08-28T16:52:05.296Z,10
2017-08-28T16:53:05.653Z,10
2017-08-28T16:54:05.034Z,10
2017-08-28T16:55:05.387Z,10
2017-08-28T16:56:05.097Z,5
2017-08-28T16:57:06.106Z,5
2017-08-28T16:58:05.502Z,5
2017-08-28T16:59:05.196Z,5
2017-08-28T17:00:05.865Z,5
2017-08-28T17:01:06.243Z,5
2017-08-28T17:02:05.939Z,5
2017-08-28T17:03:06.297Z,5
2017-08-28T17:04:06.009Z,5
2017-08-28T17:05:06.355Z,5
2017-08-28T17:06:06.413Z,5
2017-08-28T17:07:06.418Z,5
2017-08-28T17:08:05.827Z,5
2017-08-28T17:09:06.172Z,5
2017-08-28T17:10:20.440Z,5
2017-08-28T17:11:06.602Z,5
2017-08-28T17:12:06.603Z,5
2017-08-28T17:13:05.970Z,5
2017-08-28T17:14:06.001Z,5
2017-08-28T17:15:06.768Z,5
2017-08-28T17:16:06.392Z,5
2017-08-28T17:17:06.093Z,5
2017-08-28T17:18:06.130Z,5
2017-08-28T17:19:06.604Z,5
2017-08-28T17:20:06.197Z,5
2017-08-28T17:21:05.905Z,5
2017-08-28T17:22:07.069Z,5
2017-08-28T17:23:06.749Z,5
2017-08-28T17:24:06.740Z,0
2017-08-28T17:25:06.770Z,0
2017-08-28T17:26:06.381Z,0
2017-08-28T17:27:06.867Z,0
2017-08-28T17:28:06.865Z,0
2017-08-28T17:29:06.586Z,0
2017-08-28T17:30:07.061Z,0
2017-08-28T17:31:06.954Z,0
2017-08-28T17:32:07.279Z,0
2017-08-28T17:33:07.073Z,0
2017-08-28T17:34:06.962Z,0
2017-08-28T17:35:06.892Z,0
2017-08-28T17:36:07.212Z,0
2017-08-28T17:37:06.857Z,0
2017-08-28T17:38:07.160Z,0
2017-08-28T17:39:07.011Z,0
2017-08-28T17:40:07.238Z,0
2017-08-28T17:41:07.533Z,0
2017-08-28T17:42:06.910Z,0
2017-08-28T17:43:06.920Z,0
2017-08-28T17:44:06.955Z,0
2017-08-28T17:45:06.992Z,0
2017-08-28T17:46:07.355Z,0
2017-08-28T17:47:07.167Z,0
2017-08-28T17:48:07.416Z,0
2017-08-28T17:49:07.105Z,0
2017-08-28T17:50:07.795Z,0
2017-08-28T17:51:07.497Z,0
2017-08-28T17:52:07.746Z,0
2017-08-28T17:53:06.918Z,0
2017-08-28T17:54:07.269Z,0
2017-08-28T17:55:07.624Z,0
2017-08-28T17:56:07.979Z,0
2017-08-28T17:57:07.355Z,0
2017-08-28T17:58:07.716Z,0
2017-08-28T17:59:08.068Z,0
2017-08-28T18:00:08.095Z,0
2017-08-28T18:01:07.806Z,0
2017-08-28T18:02:08.173Z,0
2017-08-28T18:03:07.860Z,0
2017-08-28T18:04:08.231Z,0
2017-08-28T18:05:07.736Z,0
2017-08-28T18:06:07.979Z,0
2017-08-28T18:07:07.998Z,0
2017-08-28T18:08:08.390Z,0
2017-08-28T18:09:08.059Z,0
2017-08-28T18:10:07.814Z,0
2017-08-28T18:11:08.446Z,0
2017-08-28T18:12:08.156Z,0
2017-08-28T18:13:08.153Z,0
2017-08-28T18:14:08.195Z,0
2017-08-28T18:15:08.561Z,0
2017-08-28T18:16:08.285Z,0
2017-08-28T18:17:07.324Z,0
2017-08-28T18:18:08.315Z,0
2017-08-28T18:19:08.359Z,0
2017-08-28T18:20:08.460Z,0
2017-08-28T18:21:08.765Z,0
2017-08-28T18:22:08.486Z,0
2017-08-28T18:23:08.484Z,0
2017-08-28T18:24:08.510Z,0
2017-08-28T18:25:07.891Z,0
2017-08-28T18:26:08.242Z,0
2017-08-28T18:27:08.266Z,0
2017-08-28T18:28:08.622Z,0
2017-08-28T18:29:08.726Z,0
2017-08-28T18:30:08.701Z,0
2017-08-28T18:31:08.395Z,0
2017-08-28T18:32:08.424Z,0
2017-08-28T18:33:09.092Z,0
2017-08-28T18:34:08.483Z,0
2017-08-28T18:35:09.170Z,0
2017-08-28T18:36:08.538Z,0
2017-08-28T18:37:08.896Z,0
2017-08-28T18:38:08.605Z,0
2017-08-28T18:39:09.269Z,0
2017-08-28T18:40:08.663Z,0
2017-08-28T18:41:09.009Z,0
2017-08-28T18:42:08.712Z,0
2017-08-28T18:43:09.930Z,0
2017-08-28T18:44:09.099Z,0
2017-08-28T18:45:09.127Z,0
2017-08-28T18:46:09.164Z,0
2017-08-28T18:47:09.516Z,0
2017-08-28T18:48:08.891Z,0
2017-08-28T18:49:08.935Z,0
2017-08-28T18:50:08.955Z,0
2017-08-28T18:51:09.631Z,0
2017-08-28T18:52:08.682Z,0
2017-08-28T18:53:08.391Z,0
2017-08-28T18:54:09.715Z,0
2017-08-28T18:55:09.761Z,0
2017-08-28T18:56:09.124Z,0
2017-08-28T18:57:09.154Z,0
2017-08-28T18:58:09.193Z,0
2017-08-28T18:59:09.215Z,0
2017-08-28T19:00:08.926Z,0
2017-08-28T19:01:09.281Z,0
2017-08-28T19:02:09.301Z,0
2017-08-28T19:03:09.012Z,0
2017-08-28T19:04:09.356Z,0
2017-08-28T19:05:09.392Z,0
2017-08-28T19:06:09.740Z,0
2017-08-28T19:07:09.447Z,0
2017-08-28T19:08:09.482Z,0
2017-08-28T19:09:09.623Z,0
2017-08-28T19:10:09.941Z,0
2017-08-28T19:11:10.424Z,0
2017-08-28T19:12:09.991Z,0
2017-08-28T19:13:10.099Z,0
2017-08-28T19:14:09.970Z,0
2017-08-28T19:15:09.671Z,0
2017-08-28T19:16:10.252Z,0
2017-08-28T19:17:09.409Z,0